Record high temperature 35.7°C Record low temperature -5.3°C Record high gust 54 mph Record high average 35.8 mph Record daily rain 5.08 in. Record low windchill -10.8°C Record high barometer 1045.9 hPa Record low barometer 970.9 hPa
Daily high pressure 1020.8 mb Daily low pressure 1019.4 mb Daily low windchill 12.9°C Daily high heat index 14.2°C Daily high gust speed 8.1 mph SE Daily high average speed 4.9 mph S
Forecast: increasing clouds with little temp. change. precipitation possible within 24 to 48 hrs.
Weather Data
LAST READING AT TIME: 07:30 DATE: 24 September 2017, time of next update: 07:45
Current WeatherCloudy/Dry Current Temperature 12.9°C (55.2°F), Apparent temp 12.7°C, Apparent temp solar 14.7°C
Maximum Temperature (since midnight)14.2°C at: 00:00 Minimum Temperature (since midnight)12.9°C at: 07:09
Average windspeed (ten minute)1.3 mph Wind Direction (ten minute)SE (140°)
Windchill Temperature 12.9°C Maximum Gust (last hour) 7 mph at: 07:05
Maximum Gust (since midnight) 8 mph at: 00:15 Maximum 1 minute average (since midnight)4.9 mph at: 04:28
Rainfall (last hour)0.00 in. (0.0 mm) Rainfall (since midnight)0.00 in. (0.0 mm) ---
Rainfall This month 1.04 in. (26.3 mm) Rainfall To date this year 15.02 in. (381.4 mm)
Maximum rain per minute (last hour)0.00 in/min Maximum rain per hour (last 6 hours)0.00 in/hour
Yesterdays rainfall 0.00 in DewPoint 9.9°C (Wet Bulb :11.3°C )
Humidity 82 %, Humidex 14.1°C Barometer corrected to msl1020.0 mb
Pressure change +0.4 mb (last hour) Trend (last hour)STEADY
Pressure change (last 12 hours)-1.0 mb Pressure change (last 6 hours)-0.4 mb
Current Indoor Temp. 17.4°C
Current Indoor Hum. 56%
Current solar 28 W/M Current UV0.0
Maximum solar (since midnight) 28 W/M Maximum UV (since midnight)0.0
Current 00:00 hours of sunshine today, current sky: Cloudy
Sunshine hours for the year: 777:59 hrs Sunshine hours for the month: 69:28 hrs
Current evapotranspiration 0.01 inches per day. Yesterday's reading 0.07

This page is updated from recent data collected by a DAVIS VANTAGE PRO weather station Use the Reload or Refresh facility on your browser to retrieve the latest data.


Click here for the last 24 hour graph
Click here for the last 48 hour graph
Click here for the last 72 hour graph
Click here for the month to date graph


Weather report/Warning/Metars

London / Gatwick Airport, United Kingdom (EGKK) 51-09N 000-11W 0M
Sep 24, 2017 - 01:50 AM EDT / 2017.09.24 0550 UTC
Wind: from the E (080 degrees) at 6 MPH (5 KT):0
Visibility: 2 mile(s):0
Weather: mist
Temperature: 48 F (9 C)
Dew Point: 46 F (8 C)
Relative Humidity: 93%
Pressure (altimeter): 30.09 in. Hg (1019 hPa)
ob: EGKK 240550Z 08005KT 4000 BR NSC 09/08 Q1019
cycle: 6
London City Airport, United Kingdom (EGLC) 51-30N 000-30W
Sep 24, 2017 - 01:50 AM EDT / 2017.09.24 0550 UTC
Wind: from the E (090 degrees) at 8 MPH (7 KT):0
Visibility: greater than 7 mile(s):0
Temperature: 55 F (13 C)
Dew Point: 51 F (11 C)
Relative Humidity: 87%
Pressure (altimeter): 30.12 in. Hg (1020 hPa)
ob: EGLC 240550Z AUTO 09007KT 9999 NCD 13/11 Q1020
cycle: 6
London / Heathrow Airport, United Kingdom (EGLL) 51-29N 000-27W 0M
Sep 24, 2017 - 01:50 AM EDT / 2017.09.24 0550 UTC
Wind: from the E (080 degrees) at 3 MPH (3 KT):0
Visibility: 3 mile(s):0
Temperature: 50 F (10 C)
Dew Point: 50 F (10 C)
Relative Humidity: 100%
Pressure (altimeter): 30.09 in. Hg (1019 hPa)
ob: EGLL 240550Z AUTO 08003KT 6000 NCD 10/10 Q1019
cycle: 6
Southend-On-Sea , United Kingdom (EGMC) 51-34N 000-42E
Sep 24, 2017 - 01:50 AM EDT / 2017.09.24 0550 UTC
Wind: from the ESE (110 degrees) at 6 MPH (5 KT):0
Visibility: greater than 7 mile(s):0
Temperature: 55 F (13 C)
Dew Point: 48 F (9 C)
Relative Humidity: 76%
Pressure (altimeter): 30.12 in. Hg (1020 hPa)
ob: EGMC 240550Z 11005KT CAVOK 13/09 Q1020
cycle: 6
Lydd Airport , United Kingdom (EGMD) 50-57N 000-56E
Sep 24, 2017 - 01:50 AM EDT / 2017.09.24 0550 UTC
Wind: from the SE (130 degrees) at 10 MPH (9 KT):0
Visibility: greater than 7 mile(s):0
Temperature: 57 F (14 C)
Dew Point: 53 F (12 C)
Relative Humidity: 87%
Pressure (altimeter): 30.12 in. Hg (1020 hPa)
ob: EGMD 240550Z AUTO 13009KT 9999 NCD 14/12 Q1020
cycle: 6
Biggin Hill , United Kingdom (EGKB) 51-19N 000-02E
Sep 23, 2017 - 04:20 PM EDT / 2017.09.23 2020 UTC
Wind: from the SE (130 degrees) at 6 MPH (5 KT) (direction variable):0
Visibility: greater than 7 mile(s):0
Temperature: 53 F (12 C)
Dew Point: 46 F (8 C)
Relative Humidity: 76%
Pressure (altimeter): 30.15 in. Hg (1021 hPa)
ob: EGKB 232020Z 13005KT 090V150 CAVOK 12/08 Q1021 
cycle: 20
Amundsen-Scott South Pole Station, Antarctica (NZSP) 90-00S 00-00E 2835M
Sep 24, 2017 - 01:50 AM EDT / 2017.09.24 0550 UTC
Wind: from the NNE (030 degrees) at 18 MPH (16 KT) gusting to 25 MPH (22 KT):0
Visibility: less than 1 mile:0
Sky conditions: partly cloudy
Weather: blowing snow
Temperature: -58 F (-50 C)
Windchill: -95 F (-71 C):2
Pressure (altimeter): 27.75 in. Hg (939 hPa)
ob: NZSP 240550Z 03016G22KT 1000 BLSN FEW000 SCT060 M50/ A2775 RMK BLSN FEW000 CLN AIR 03016G22KT ALL WNDS GRID 
cycle: 6